sensor_id;sensor_type;location;lat;lon;timestamp;temperature;humidity
3866;DHT22;1948;53.250;10.412;2022-08-30T00:02:26;18.40;99.90
3866;DHT22;1948;53.250;10.412;2022-08-30T00:04:55;18.40;99.90
3866;DHT22;1948;53.250;10.412;2022-08-30T00:07:27;18.40;99.90
3866;DHT22;1948;53.250;10.412;2022-08-30T00:09:54;18.50;99.90
3866;DHT22;1948;53.250;10.412;2022-08-30T00:12:21;18.50;99.90
3866;DHT22;1948;53.250;10.412;2022-08-30T00:14:48;18.50;99.90
3866;DHT22;1948;53.250;10.412;2022-08-30T00:17:15;18.60;99.90
3866;DHT22;1948;53.250;10.412;2022-08-30T00:19:44;18.50;99.90
3866;DHT22;1948;53.250;10.412;2022-08-30T00:22:12;18.60;99.90
3866;DHT22;1948;53.250;10.412;2022-08-30T00:24:39;18.50;99.90
3866;DHT22;1948;53.250;10.412;2022-08-30T00:27:06;18.60;99.90
3866;DHT22;1948;53.250;10.412;2022-08-30T00:29:33;18.60;99.90
3866;DHT22;1948;53.250;10.412;2022-08-30T00:32:03;18.60;99.90
3866;DHT22;1948;53.250;10.412;2022-08-30T00:34:31;18.60;99.90
3866;DHT22;1948;53.250;10.412;2022-08-30T00:36:58;18.50;99.90
3866;DHT22;1948;53.250;10.412;2022-08-30T00:39:25;18.50;99.90
3866;DHT22;1948;53.250;10.412;2022-08-30T00:41:52;18.50;99.90
3866;DHT22;1948;53.250;10.412;2022-08-30T00:44:22;18.50;99.90
3866;DHT22;1948;53.250;10.412;2022-08-30T00:46:49;18.50;99.90
3866;DHT22;1948;53.250;10.412;2022-08-30T00:49:16;18.50;99.90
3866;DHT22;1948;53.250;10.412;2022-08-30T00:51:46;18.50;99.90
3866;DHT22;1948;53.250;10.412;2022-08-30T00:54:16;18.50;99.90
3866;DHT22;1948;53.250;10.412;2022-08-30T00:56:47;18.50;99.90
3866;DHT22;1948;53.250;10.412;2022-08-30T00:59:15;18.50;99.90
3866;DHT22;1948;53.250;10.412;2022-08-30T01:01:42;18.50;99.90
3866;DHT22;1948;53.250;10.412;2022-08-30T01:04:10;18.50;99.90
3866;DHT22;1948;53.250;10.412;2022-08-30T01:06:39;18.50;99.90
3866;DHT22;1948;53.250;10.412;2022-08-30T01:09:07;18.50;99.90
3866;DHT22;1948;53.250;10.412;2022-08-30T01:11:35;18.50;99.90
3866;DHT22;1948;53.250;10.412;2022-08-30T01:14:04;18.50;99.90
3866;DHT22;1948;53.250;10.412;2022-08-30T01:16:33;18.50;99.90
3866;DHT22;1948;53.250;10.412;2022-08-30T01:19:01;18.50;99.90
3866;DHT22;1948;53.250;10.412;2022-08-30T01:21:39;18.50;99.90
3866;DHT22;1948;53.250;10.412;2022-08-30T01:24:13;18.40;99.90
3866;DHT22;1948;53.250;10.412;2022-08-30T01:26:40;18.40;99.90
3866;DHT22;1948;53.250;10.412;2022-08-30T01:29:10;18.50;99.90
3866;DHT22;1948;53.250;10.412;2022-08-30T01:31:43;18.50;99.90
3866;DHT22;1948;53.250;10.412;2022-08-30T01:34:13;18.40;99.90
3866;DHT22;1948;53.250;10.412;2022-08-30T01:36:45;18.40;99.90
3866;DHT22;1948;53.250;10.412;2022-08-30T01:39:16;18.50;99.90
3866;DHT22;1948;53.250;10.412;2022-08-30T01:41:46;18.50;99.90
3866;DHT22;1948;53.250;10.412;2022-08-30T01:44:16;18.50;99.90
3866;DHT22;1948;53.250;10.412;2022-08-30T01:46:46;18.50;99.90
3866;DHT22;1948;53.250;10.412;2022-08-30T01:49:17;18.50;99.90
3866;DHT22;1948;53.250;10.412;2022-08-30T01:51:53;18.60;99.90
3866;DHT22;1948;53.250;10.412;2022-08-30T01:54:27;18.60;99.90
3866;DHT22;1948;53.250;10.412;2022-08-30T01:57:05;18.60;99.90
3866;DHT22;1948;53.250;10.412;2022-08-30T01:59:36;18.60;99.90
3866;DHT22;1948;53.250;10.412;2022-08-30T02:02:08;18.60;99.90
3866;DHT22;1948;53.250;10.412;2022-08-30T02:04:36;18.50;99.90
3866;DHT22;1948;53.250;10.412;2022-08-30T02:07:03;18.50;99.90
3866;DHT22;1948;53.250;10.412;2022-08-30T02:09:33;18.60;99.90
3866;DHT22;1948;53.250;10.412;2022-08-30T02:12:00;18.50;99.90
3866;DHT22;1948;53.250;10.412;2022-08-30T02:14:27;18.50;99.90
3866;DHT22;1948;53.250;10.412;2022-08-30T02:16:57;18.50;99.90
3866;DHT22;1948;53.250;10.412;2022-08-30T02:19:26;18.50;99.90
3866;DHT22;1948;53.250;10.412;2022-08-30T02:21:53;18.50;99.90
3866;DHT22;1948;53.250;10.412;2022-08-30T02:24:21;18.50;99.90
3866;DHT22;1948;53.250;10.412;2022-08-30T02:26:50;18.40;99.90
3866;DHT22;1948;53.250;10.412;2022-08-30T02:29:20;18.30;99.90
3866;DHT22;1948;53.250;10.412;2022-08-30T02:31:50;18.30;99.90
3866;DHT22;1948;53.250;10.412;2022-08-30T02:34:19;18.30;99.90
3866;DHT22;1948;53.250;10.412;2022-08-30T02:36:50;18.20;99.90
3866;DHT22;1948;53.250;10.412;2022-08-30T02:39:17;18.20;99.90
3866;DHT22;1948;53.250;10.412;2022-08-30T02:41:44;18.20;99.90
3866;DHT22;1948;53.250;10.412;2022-08-30T02:44:14;18.20;99.90
3866;DHT22;1948;53.250;10.412;2022-08-30T02:46:41;18.20;99.90
3866;DHT22;1948;53.250;10.412;2022-08-30T02:49:10;18.20;99.90
3866;DHT22;1948;53.250;10.412;2022-08-30T02:51:57;18.10;99.90
3866;DHT22;1948;53.250;10.412;2022-08-30T02:54:27;18.10;99.90
3866;DHT22;1948;53.250;10.412;2022-08-30T02:56:54;18.10;99.90
3866;DHT22;1948;53.250;10.412;2022-08-30T02:59:24;18.10;99.90
3866;DHT22;1948;53.250;10.412;2022-08-30T03:01:52;18.10;99.90
3866;DHT22;1948;53.250;10.412;2022-08-30T03:04:19;18.00;99.90
3866;DHT22;1948;53.250;10.412;2022-08-30T03:06:52;18.00;99.90
3866;DHT22;1948;53.250;10.412;2022-08-30T03:09:19;18.00;99.90
3866;DHT22;1948;53.250;10.412;2022-08-30T03:11:47;18.00;99.90
3866;DHT22;1948;53.250;10.412;2022-08-30T03:14:14;18.00;99.90
3866;DHT22;1948;53.250;10.412;2022-08-30T03:16:41;18.00;99.90
3866;DHT22;1948;53.250;10.412;2022-08-30T03:19:11;18.00;99.90
3866;DHT22;1948;53.250;10.412;2022-08-30T03:21:40;18.10;99.90
3866;DHT22;1948;53.250;10.412;2022-08-30T03:24:10;18.10;99.90
3866;DHT22;1948;53.250;10.412;2022-08-30T03:26:39;18.10;99.90
3866;DHT22;1948;53.250;10.412;2022-08-30T03:29:12;18.10;99.90
3866;DHT22;1948;53.250;10.412;2022-08-30T03:31:39;18.10;99.90
3866;DHT22;1948;53.250;10.412;2022-08-30T03:34:19;18.10;99.90
3866;DHT22;1948;53.250;10.412;2022-08-30T03:36:47;18.20;99.90
3866;DHT22;1948;53.250;10.412;2022-08-30T03:39:15;18.20;99.90
3866;DHT22;1948;53.250;10.412;2022-08-30T03:41:42;18.20;99.90
3866;DHT22;1948;53.250;10.412;2022-08-30T03:44:09;18.20;99.90
3866;DHT22;1948;53.250;10.412;2022-08-30T03:46:36;18.20;99.90
3866;DHT22;1948;53.250;10.412;2022-08-30T03:49:04;18.10;99.90
3866;DHT22;1948;53.250;10.412;2022-08-30T03:51:32;18.10;99.90
3866;DHT22;1948;53.250;10.412;2022-08-30T03:53:59;18.10;99.90
3866;DHT22;1948;53.250;10.412;2022-08-30T03:56:29;18.20;99.90
3866;DHT22;1948;53.250;10.412;2022-08-30T03:58:59;18.20;99.90
3866;DHT22;1948;53.250;10.412;2022-08-30T04:01:26;18.20;99.90
3866;DHT22;1948;53.250;10.412;2022-08-30T04:03:53;18.10;99.90
3866;DHT22;1948;53.250;10.412;2022-08-30T04:06:22;18.10;99.90
3866;DHT22;1948;53.250;10.412;2022-08-30T04:08:50;18.10;99.90
3866;DHT22;1948;53.250;10.412;2022-08-30T04:11:17;18.10;99.90
3866;DHT22;1948;53.250;10.412;2022-08-30T04:13:46;18.20;99.90
3866;DHT22;1948;53.250;10.412;2022-08-30T04:16:18;18.20;99.90
3866;DHT22;1948;53.250;10.412;2022-08-30T04:18:48;18.10;99.90
3866;DHT22;1948;53.250;10.412;2022-08-30T04:21:18;18.20;99.90
3866;DHT22;1948;53.250;10.412;2022-08-30T04:23:45;18.20;99.90
3866;DHT22;1948;53.250;10.412;2022-08-30T04:26:14;18.20;99.90
3866;DHT22;1948;53.250;10.412;2022-08-30T04:28:41;18.10;99.90
3866;DHT22;1948;53.250;10.412;2022-08-30T04:31:14;18.10;99.90
3866;DHT22;1948;53.250;10.412;2022-08-30T04:33:42;18.10;99.90
3866;DHT22;1948;53.250;10.412;2022-08-30T04:36:10;18.10;99.90
3866;DHT22;1948;53.250;10.412;2022-08-30T04:38:40;18.10;99.90
3866;DHT22;1948;53.250;10.412;2022-08-30T04:41:16;18.10;99.90
3866;DHT22;1948;53.250;10.412;2022-08-30T04:43:45;18.10;99.90
3866;DHT22;1948;53.250;10.412;2022-08-30T04:46:20;18.10;99.90
3866;DHT22;1948;53.250;10.412;2022-08-30T04:48:48;18.10;99.90
3866;DHT22;1948;53.250;10.412;2022-08-30T04:51:16;18.10;99.90
3866;DHT22;1948;53.250;10.412;2022-08-30T04:53:44;18.20;99.90
3866;DHT22;1948;53.250;10.412;2022-08-30T04:56:17;18.20;99.90
3866;DHT22;1948;53.250;10.412;2022-08-30T04:58:46;18.20;99.90
3866;DHT22;1948;53.250;10.412;2022-08-30T05:01:16;18.20;99.90
3866;DHT22;1948;53.250;10.412;2022-08-30T05:03:50;18.20;99.90
3866;DHT22;1948;53.250;10.412;2022-08-30T05:06:21;18.20;99.90
3866;DHT22;1948;53.250;10.412;2022-08-30T05:08:52;18.20;99.90
3866;DHT22;1948;53.250;10.412;2022-08-30T05:11:20;18.30;99.90
3866;DHT22;1948;53.250;10.412;2022-08-30T05:13:48;18.30;99.90
3866;DHT22;1948;53.250;10.412;2022-08-30T05:16:15;18.30;99.90
3866;DHT22;1948;53.250;10.412;2022-08-30T05:18:46;18.30;99.90
3866;DHT22;1948;53.250;10.412;2022-08-30T05:21:22;18.30;99.90
3866;DHT22;1948;53.250;10.412;2022-08-30T05:23:55;18.30;99.90
3866;DHT22;1948;53.250;10.412;2022-08-30T05:26:28;18.30;99.90
3866;DHT22;1948;53.250;10.412;2022-08-30T05:28:57;18.40;99.90
3866;DHT22;1948;53.250;10.412;2022-08-30T05:31:26;18.40;99.90
3866;DHT22;1948;53.250;10.412;2022-08-30T05:33:56;18.40;99.90
3866;DHT22;1948;53.250;10.412;2022-08-30T05:36:27;18.40;99.90
3866;DHT22;1948;53.250;10.412;2022-08-30T05:38:55;18.40;99.90
3866;DHT22;1948;53.250;10.412;2022-08-30T05:41:25;18.50;99.90
3866;DHT22;1948;53.250;10.412;2022-08-30T05:43:58;18.40;99.90
3866;DHT22;1948;53.250;10.412;2022-08-30T05:46:31;18.40;99.90
3866;DHT22;1948;53.250;10.412;2022-08-30T05:49:02;18.50;99.90
3866;DHT22;1948;53.250;10.412;2022-08-30T05:51:34;18.60;99.90
3866;DHT22;1948;53.250;10.412;2022-08-30T05:54:13;18.60;99.90
3866;DHT22;1948;53.250;10.412;2022-08-30T05:56:42;18.60;99.90
3866;DHT22;1948;53.250;10.412;2022-08-30T05:59:11;18.60;99.90
3866;DHT22;1948;53.250;10.412;2022-08-30T06:01:42;18.70;99.90
3866;DHT22;1948;53.250;10.412;2022-08-30T06:04:11;18.70;99.90
3866;DHT22;1948;53.250;10.412;2022-08-30T06:06:42;18.80;99.90
3866;DHT22;1948;53.250;10.412;2022-08-30T06:09:12;18.80;99.90
3866;DHT22;1948;53.250;10.412;2022-08-30T06:11:44;18.80;99.90
3866;DHT22;1948;53.250;10.412;2022-08-30T06:14:12;18.80;99.90
3866;DHT22;1948;53.250;10.412;2022-08-30T06:16:42;18.80;99.90
3866;DHT22;1948;53.250;10.412;2022-08-30T06:19:13;18.90;99.90
3866;DHT22;1948;53.250;10.412;2022-08-30T06:21:41;19.00;99.90
3866;DHT22;1948;53.250;10.412;2022-08-30T06:24:10;19.10;99.90
3866;DHT22;1948;53.250;10.412;2022-08-30T06:26:39;19.10;99.90
3866;DHT22;1948;53.250;10.412;2022-08-30T06:29:09;19.20;99.90
3866;DHT22;1948;53.250;10.412;2022-08-30T06:31:37;19.30;99.90
3866;DHT22;1948;53.250;10.412;2022-08-30T06:34:07;19.50;99.90
3866;DHT22;1948;53.250;10.412;2022-08-30T06:36:34;19.70;99.90
3866;DHT22;1948;53.250;10.412;2022-08-30T06:39:02;19.70;99.90
3866;DHT22;1948;53.250;10.412;2022-08-30T06:41:35;19.80;99.90
3866;DHT22;1948;53.250;10.412;2022-08-30T06:44:03;20.00;99.90
3866;DHT22;1948;53.250;10.412;2022-08-30T06:46:34;20.10;99.90
3866;DHT22;1948;53.250;10.412;2022-08-30T06:49:06;20.10;99.90
3866;DHT22;1948;53.250;10.412;2022-08-30T06:51:39;20.20;99.90
3866;DHT22;1948;53.250;10.412;2022-08-30T06:54:08;20.20;99.90
3866;DHT22;1948;53.250;10.412;2022-08-30T06:56:39;20.30;99.90
3866;DHT22;1948;53.250;10.412;2022-08-30T06:59:23;20.40;99.90
3866;DHT22;1948;53.250;10.412;2022-08-30T07:01:52;20.40;99.90
3866;DHT22;1948;53.250;10.412;2022-08-30T07:04:25;20.50;99.90
3866;DHT22;1948;53.250;10.412;2022-08-30T07:06:52;20.50;99.90
3866;DHT22;1948;53.250;10.412;2022-08-30T07:09:22;20.60;99.90
3866;DHT22;1948;53.250;10.412;2022-08-30T07:11:52;20.70;99.90
3866;DHT22;1948;53.250;10.412;2022-08-30T07:14:22;20.80;99.90
3866;DHT22;1948;53.250;10.412;2022-08-30T07:16:49;21.00;99.90
3866;DHT22;1948;53.250;10.412;2022-08-30T07:19:23;21.20;99.90
3866;DHT22;1948;53.250;10.412;2022-08-30T07:21:50;21.40;99.90
3866;DHT22;1948;53.250;10.412;2022-08-30T07:24:18;21.50;99.90
3866;DHT22;1948;53.250;10.412;2022-08-30T07:26:48;21.70;99.90
3866;DHT22;1948;53.250;10.412;2022-08-30T07:29:19;21.80;99.90
3866;DHT22;1948;53.250;10.412;2022-08-30T07:31:49;21.90;99.90
3866;DHT22;1948;53.250;10.412;2022-08-30T07:34:16;22.10;99.90
3866;DHT22;1948;53.250;10.412;2022-08-30T07:36:46;22.10;99.90
3866;DHT22;1948;53.250;10.412;2022-08-30T07:39:12;22.30;99.90
3866;DHT22;1948;53.250;10.412;2022-08-30T07:41:39;22.20;99.90
3866;DHT22;1948;53.250;10.412;2022-08-30T07:44:07;22.40;99.90
3866;DHT22;1948;53.250;10.412;2022-08-30T07:46:36;22.70;99.90
3866;DHT22;1948;53.250;10.412;2022-08-30T07:49:06;22.90;99.90
3866;DHT22;1948;53.250;10.412;2022-08-30T07:51:37;23.20;99.90
3866;DHT22;1948;53.250;10.412;2022-08-30T07:54:04;23.50;99.90
3866;DHT22;1948;53.250;10.412;2022-08-30T07:56:34;23.70;99.90
3866;DHT22;1948;53.250;10.412;2022-08-30T07:59:02;23.80;99.90
3866;DHT22;1948;53.250;10.412;2022-08-30T08:01:29;23.90;99.90
3866;DHT22;1948;53.250;10.412;2022-08-30T08:04:00;24.00;99.90
3866;DHT22;1948;53.250;10.412;2022-08-30T08:06:27;24.10;99.90
3866;DHT22;1948;53.250;10.412;2022-08-30T08:09:03;24.30;99.90
3866;DHT22;1948;53.250;10.412;2022-08-30T08:11:31;24.10;99.90
3866;DHT22;1948;53.250;10.412;2022-08-30T08:14:00;24.10;99.90
3866;DHT22;1948;53.250;10.412;2022-08-30T08:16:34;23.90;99.90
3866;DHT22;1948;53.250;10.412;2022-08-30T08:19:06;23.80;99.90
3866;DHT22;1948;53.250;10.412;2022-08-30T08:21:35;23.60;99.90
3866;DHT22;1948;53.250;10.412;2022-08-30T08:24:07;23.50;99.90
3866;DHT22;1948;53.250;10.412;2022-08-30T08:26:35;23.40;99.90
3866;DHT22;1948;53.250;10.412;2022-08-30T08:29:15;23.30;99.90
3866;DHT22;1948;53.250;10.412;2022-08-30T08:31:42;23.30;99.90
3866;DHT22;1948;53.250;10.412;2022-08-30T08:34:11;23.20;99.90
3866;DHT22;1948;53.250;10.412;2022-08-30T08:36:39;23.10;99.90
3866;DHT22;1948;53.250;10.412;2022-08-30T08:39:07;23.30;99.90
3866;DHT22;1948;53.250;10.412;2022-08-30T08:41:52;23.30;99.90
3866;DHT22;1948;53.250;10.412;2022-08-30T08:50:17;23.30;99.90
3866;DHT22;1948;53.250;10.412;2022-08-30T08:53:11;23.30;99.90
3866;DHT22;1948;53.250;10.412;2022-08-30T08:56:16;23.20;99.90
3866;DHT22;1948;53.250;10.412;2022-08-30T08:58:53;23.20;99.90
3866;DHT22;1948;53.250;10.412;2022-08-30T09:01:24;23.10;99.90
3866;DHT22;1948;53.250;10.412;2022-08-30T09:03:54;23.00;99.90
3866;DHT22;1948;53.250;10.412;2022-08-30T09:09:18;22.80;99.90
3866;DHT22;1948;53.250;10.412;2022-08-30T09:11:50;22.70;99.90
3866;DHT22;1948;53.250;10.412;2022-08-30T09:14:24;22.70;99.90
3866;DHT22;1948;53.250;10.412;2022-08-30T09:19:33;22.40;99.90
3866;DHT22;1948;53.250;10.412;2022-08-30T09:25:15;22.40;99.90
3866;DHT22;1948;53.250;10.412;2022-08-30T09:27:44;22.50;99.90
3866;DHT22;1948;53.250;10.412;2022-08-30T09:30:24;22.70;99.90
3866;DHT22;1948;53.250;10.412;2022-08-30T09:32:59;22.70;99.90
3866;DHT22;1948;53.250;10.412;2022-08-30T09:35:44;22.60;99.90
3866;DHT22;1948;53.250;10.412;2022-08-30T09:38:31;22.50;99.90
3866;DHT22;1948;53.250;10.412;2022-08-30T09:41:02;22.50;99.90
3866;DHT22;1948;53.250;10.412;2022-08-30T09:44:05;22.40;99.90
3866;DHT22;1948;53.250;10.412;2022-08-30T09:46:55;22.30;99.90
3866;DHT22;1948;53.250;10.412;2022-08-30T09:49:40;22.50;99.90
3866;DHT22;1948;53.250;10.412;2022-08-30T09:52:23;22.70;99.90
3866;DHT22;1948;53.250;10.412;2022-08-30T10:00:54;22.80;99.90
3866;DHT22;1948;53.250;10.412;2022-08-30T10:03:32;23.00;99.90
3866;DHT22;1948;53.250;10.412;2022-08-30T10:06:30;23.00;99.90
3866;DHT22;1948;53.250;10.412;2022-08-30T10:23:28;23.40;99.90
3866;DHT22;1948;53.250;10.412;2022-08-30T10:26:08;23.60;99.90
3866;DHT22;1948;53.250;10.412;2022-08-30T10:28:47;23.80;99.90
3866;DHT22;1948;53.250;10.412;2022-08-30T10:34:38;23.90;99.90
3866;DHT22;1948;53.250;10.412;2022-08-30T10:37:13;24.10;99.90
3866;DHT22;1948;53.250;10.412;2022-08-30T10:39:50;24.10;99.90
3866;DHT22;1948;53.250;10.412;2022-08-30T10:42:25;24.10;99.90
3866;DHT22;1948;53.250;10.412;2022-08-30T10:45:01;24.30;99.90
3866;DHT22;1948;53.250;10.412;2022-08-30T10:47:39;24.70;99.90
3866;DHT22;1948;53.250;10.412;2022-08-30T10:50:47;24.90;99.90
3866;DHT22;1948;53.250;10.412;2022-08-30T10:53:32;25.10;99.90
3866;DHT22;1948;53.250;10.412;2022-08-30T10:56:08;25.50;99.90
3866;DHT22;1948;53.250;10.412;2022-08-30T10:58:41;25.80;99.90
3866;DHT22;1948;53.250;10.412;2022-08-30T11:09:52;25.60;99.90
3866;DHT22;1948;53.250;10.412;2022-08-30T11:18:48;29.80;99.90
3866;DHT22;1948;53.250;10.412;2022-08-30T11:24:16;30.60;99.90
3866;DHT22;1948;53.250;10.412;2022-08-30T11:32:17;29.40;99.90
3866;DHT22;1948;53.250;10.412;2022-08-30T11:34:57;30.70;99.90
3866;DHT22;1948;53.250;10.412;2022-08-30T11:42:53;30.70;99.90
3866;DHT22;1948;53.250;10.412;2022-08-30T11:47:58;30.00;99.90
3866;DHT22;1948;53.250;10.412;2022-08-30T11:56:24;27.80;99.90
3866;DHT22;1948;53.250;10.412;2022-08-30T11:59:06;27.30;99.90
3866;DHT22;1948;53.250;10.412;2022-08-30T12:01:49;27.00;99.90
3866;DHT22;1948;53.250;10.412;2022-08-30T12:07:05;27.00;99.90
3866;DHT22;1948;53.250;10.412;2022-08-30T12:12:43;26.00;99.90
3866;DHT22;1948;53.250;10.412;2022-08-30T12:18:26;25.40;99.90
3866;DHT22;1948;53.250;10.412;2022-08-30T12:21:01;25.20;99.90
3866;DHT22;1948;53.250;10.412;2022-08-30T12:23:35;25.10;99.90
3866;DHT22;1948;53.250;10.412;2022-08-30T12:26:15;25.10;99.90
3866;DHT22;1948;53.250;10.412;2022-08-30T12:28:49;25.10;99.90
3866;DHT22;1948;53.250;10.412;2022-08-30T12:31:24;25.00;99.90
3866;DHT22;1948;53.250;10.412;2022-08-30T12:33:57;25.00;99.90
3866;DHT22;1948;53.250;10.412;2022-08-30T12:36:35;24.80;99.90
3866;DHT22;1948;53.250;10.412;2022-08-30T12:39:47;24.70;99.90
3866;DHT22;1948;53.250;10.412;2022-08-30T12:42:22;24.90;99.90
3866;DHT22;1948;53.250;10.412;2022-08-30T12:44:55;25.00;99.90
3866;DHT22;1948;53.250;10.412;2022-08-30T12:50:27;24.80;99.90
3866;DHT22;1948;53.250;10.412;2022-08-30T12:53:07;25.20;99.90
3866;DHT22;1948;53.250;10.412;2022-08-30T12:56:02;25.50;99.90
3866;DHT22;1948;53.250;10.412;2022-08-30T12:58:45;25.70;99.90
3866;DHT22;1948;53.250;10.412;2022-08-30T13:01:33;25.70;99.90
3866;DHT22;1948;53.250;10.412;2022-08-30T13:04:31;25.60;99.90
3866;DHT22;1948;53.250;10.412;2022-08-30T13:06:59;25.50;99.90
3866;DHT22;1948;53.250;10.412;2022-08-30T13:09:39;25.50;99.90
3866;DHT22;1948;53.250;10.412;2022-08-30T13:12:24;25.50;99.90
3866;DHT22;1948;53.250;10.412;2022-08-30T13:15:34;25.50;99.90
3866;DHT22;1948;53.250;10.412;2022-08-30T13:23:58;25.10;99.90
3866;DHT22;1948;53.250;10.412;2022-08-30T13:26:30;24.90;99.90
3866;DHT22;1948;53.250;10.412;2022-08-30T13:29:05;24.70;99.90
3866;DHT22;1948;53.250;10.412;2022-08-30T13:31:38;24.80;99.90
3866;DHT22;1948;53.250;10.412;2022-08-30T13:34:06;24.70;99.90
3866;DHT22;1948;53.250;10.412;2022-08-30T13:37:04;24.50;99.90
3866;DHT22;1948;53.250;10.412;2022-08-30T13:39:55;24.50;99.90
3866;DHT22;1948;53.250;10.412;2022-08-30T13:42:26;24.60;99.90
3866;DHT22;1948;53.250;10.412;2022-08-30T13:45:01;24.70;99.90
3866;DHT22;1948;53.250;10.412;2022-08-30T13:47:31;24.80;99.90
3866;DHT22;1948;53.250;10.412;2022-08-30T13:50:04;24.80;99.90
3866;DHT22;1948;53.250;10.412;2022-08-30T13:52:35;24.80;99.90
3866;DHT22;1948;53.250;10.412;2022-08-30T13:55:02;24.80;99.90
3866;DHT22;1948;53.250;10.412;2022-08-30T13:57:30;24.80;99.90
3866;DHT22;1948;53.250;10.412;2022-08-30T14:00:18;24.90;99.90
3866;DHT22;1948;53.250;10.412;2022-08-30T14:02:52;25.30;99.90
3866;DHT22;1948;53.250;10.412;2022-08-30T14:05:29;25.70;99.90
3866;DHT22;1948;53.250;10.412;2022-08-30T14:08:27;26.20;99.90
3866;DHT22;1948;53.250;10.412;2022-08-30T14:11:19;26.30;99.90
3866;DHT22;1948;53.250;10.412;2022-08-30T14:13:51;26.20;99.90
3866;DHT22;1948;53.250;10.412;2022-08-30T14:16:41;26.50;99.90
3866;DHT22;1948;53.250;10.412;2022-08-30T14:19:15;26.80;99.90
3866;DHT22;1948;53.250;10.412;2022-08-30T14:21:43;26.60;99.90
3866;DHT22;1948;53.250;10.412;2022-08-30T14:24:14;26.60;99.90
3866;DHT22;1948;53.250;10.412;2022-08-30T14:26:50;26.70;99.90
3866;DHT22;1948;53.250;10.412;2022-08-30T14:29:23;26.40;99.90
3866;DHT22;1948;53.250;10.412;2022-08-30T14:31:55;26.20;99.90
3866;DHT22;1948;53.250;10.412;2022-08-30T14:34:26;26.20;99.90
3866;DHT22;1948;53.250;10.412;2022-08-30T14:36:55;26.30;99.90
3866;DHT22;1948;53.250;10.412;2022-08-30T14:39:25;26.70;99.90
3866;DHT22;1948;53.250;10.412;2022-08-30T14:41:53;26.80;99.90
3866;DHT22;1948;53.250;10.412;2022-08-30T14:44:22;26.80;99.90
3866;DHT22;1948;53.250;10.412;2022-08-30T14:46:50;26.80;99.90
3866;DHT22;1948;53.250;10.412;2022-08-30T14:49:19;26.90;99.90
3866;DHT22;1948;53.250;10.412;2022-08-30T14:51:46;26.70;99.90
3866;DHT22;1948;53.250;10.412;2022-08-30T14:54:24;26.80;99.90
3866;DHT22;1948;53.250;10.412;2022-08-30T14:56:56;26.80;99.90
3866;DHT22;1948;53.250;10.412;2022-08-30T14:59:24;26.60;99.90
3866;DHT22;1948;53.250;10.412;2022-08-30T15:01:54;26.60;99.90
3866;DHT22;1948;53.250;10.412;2022-08-30T15:04:21;26.70;99.90
3866;DHT22;1948;53.250;10.412;2022-08-30T15:06:49;26.50;99.90
3866;DHT22;1948;53.250;10.412;2022-08-30T15:09:22;26.50;99.90
3866;DHT22;1948;53.250;10.412;2022-08-30T15:11:54;26.50;99.90
3866;DHT22;1948;53.250;10.412;2022-08-30T15:14:27;26.20;99.90
3866;DHT22;1948;53.250;10.412;2022-08-30T15:16:59;26.20;99.90
3866;DHT22;1948;53.250;10.412;2022-08-30T15:19:29;26.10;99.90
3866;DHT22;1948;53.250;10.412;2022-08-30T15:22:02;25.90;99.90
3866;DHT22;1948;53.250;10.412;2022-08-30T15:24:37;25.70;99.90
3866;DHT22;1948;53.250;10.412;2022-08-30T15:27:06;25.50;99.90
3866;DHT22;1948;53.250;10.412;2022-08-30T15:29:33;25.40;99.90
3866;DHT22;1948;53.250;10.412;2022-08-30T15:32:01;25.50;99.90
3866;DHT22;1948;53.250;10.412;2022-08-30T15:34:33;25.20;99.90
3866;DHT22;1948;53.250;10.412;2022-08-30T15:37:03;24.90;99.90
3866;DHT22;1948;53.250;10.412;2022-08-30T15:39:31;24.90;99.90
3866;DHT22;1948;53.250;10.412;2022-08-30T15:41:59;24.60;99.90
3866;DHT22;1948;53.250;10.412;2022-08-30T15:44:29;24.60;99.90
3866;DHT22;1948;53.250;10.412;2022-08-30T15:46:56;24.70;99.90
3866;DHT22;1948;53.250;10.412;2022-08-30T15:49:26;24.60;99.90
3866;DHT22;1948;53.250;10.412;2022-08-30T15:51:53;24.40;99.90
3866;DHT22;1948;53.250;10.412;2022-08-30T15:54:21;24.30;99.90
3866;DHT22;1948;53.250;10.412;2022-08-30T15:56:49;24.20;99.90
3866;DHT22;1948;53.250;10.412;2022-08-30T15:59:29;24.20;99.90
3866;DHT22;1948;53.250;10.412;2022-08-30T16:01:58;24.10;99.90
3866;DHT22;1948;53.250;10.412;2022-08-30T16:04:25;24.00;99.90
3866;DHT22;1948;53.250;10.412;2022-08-30T16:06:53;24.00;99.90
3866;DHT22;1948;53.250;10.412;2022-08-30T16:09:22;23.90;99.90
3866;DHT22;1948;53.250;10.412;2022-08-30T16:11:52;23.80;99.90
3866;DHT22;1948;53.250;10.412;2022-08-30T16:14:19;23.70;99.90
3866;DHT22;1948;53.250;10.412;2022-08-30T16:16:50;23.60;99.90
3866;DHT22;1948;53.250;10.412;2022-08-30T16:19:17;23.50;99.90
3866;DHT22;1948;53.250;10.412;2022-08-30T16:21:44;23.50;99.90
3866;DHT22;1948;53.250;10.412;2022-08-30T16:24:14;23.50;99.90
3866;DHT22;1948;53.250;10.412;2022-08-30T16:26:50;23.40;99.90
3866;DHT22;1948;53.250;10.412;2022-08-30T16:29:19;23.40;99.90
3866;DHT22;1948;53.250;10.412;2022-08-30T16:31:49;23.40;99.90
3866;DHT22;1948;53.250;10.412;2022-08-30T16:34:17;23.30;99.90
3866;DHT22;1948;53.250;10.412;2022-08-30T16:36:47;23.10;99.90
3866;DHT22;1948;53.250;10.412;2022-08-30T16:39:17;23.00;99.90
3866;DHT22;1948;53.250;10.412;2022-08-30T16:41:46;22.70;99.90
3866;DHT22;1948;53.250;10.412;2022-08-30T16:44:13;22.60;99.90
3866;DHT22;1948;53.250;10.412;2022-08-30T16:46:41;22.50;99.90
3866;DHT22;1948;53.250;10.412;2022-08-30T16:49:18;22.40;99.90
3866;DHT22;1948;53.250;10.412;2022-08-30T16:51:44;22.40;99.90
3866;DHT22;1948;53.250;10.412;2022-08-30T16:54:12;22.30;99.90
3866;DHT22;1948;53.250;10.412;2022-08-30T16:56:39;22.20;99.90
3866;DHT22;1948;53.250;10.412;2022-08-30T16:59:06;22.00;99.90
3866;DHT22;1948;53.250;10.412;2022-08-30T17:01:37;22.00;99.90
3866;DHT22;1948;53.250;10.412;2022-08-30T17:04:08;21.90;99.90
3866;DHT22;1948;53.250;10.412;2022-08-30T17:06:36;21.90;99.90
3866;DHT22;1948;53.250;10.412;2022-08-30T17:09:04;21.80;99.90
3866;DHT22;1948;53.250;10.412;2022-08-30T17:11:39;21.80;99.90
3866;DHT22;1948;53.250;10.412;2022-08-30T17:14:11;21.80;99.90
3866;DHT22;1948;53.250;10.412;2022-08-30T17:16:40;21.80;99.90
3866;DHT22;1948;53.250;10.412;2022-08-30T17:19:10;21.80;99.90
3866;DHT22;1948;53.250;10.412;2022-08-30T17:21:39;21.70;99.90
3866;DHT22;1948;53.250;10.412;2022-08-30T17:24:06;21.60;99.90
3866;DHT22;1948;53.250;10.412;2022-08-30T17:26:38;21.60;99.90
3866;DHT22;1948;53.250;10.412;2022-08-30T17:29:05;21.50;99.90
3866;DHT22;1948;53.250;10.412;2022-08-30T17:31:38;21.50;99.90
3866;DHT22;1948;53.250;10.412;2022-08-30T17:34:08;21.40;99.90
3866;DHT22;1948;53.250;10.412;2022-08-30T17:36:37;21.30;99.90
3866;DHT22;1948;53.250;10.412;2022-08-30T17:39:05;21.30;99.90
3866;DHT22;1948;53.250;10.412;2022-08-30T17:41:40;21.20;99.90
3866;DHT22;1948;53.250;10.412;2022-08-30T17:44:17;21.10;99.90
3866;DHT22;1948;53.250;10.412;2022-08-30T17:46:45;21.10;99.90
3866;DHT22;1948;53.250;10.412;2022-08-30T17:49:17;21.10;99.90